메인 페이지
METAR-TAF:

METAR-TAF

공항 :

일리, 네바다, 미국

Ely Airport (Yelland Field)

위도: 39-17-42N, 경도: 114-50-43W, 고도: 1907m

현재 날씨관측

예보는 18 시간 30분 전, 14:53시(UTC)에 발표되었습니다.
남남서3kt
온도 -17°C
습도 84%
기압 1014 hPa
고도 5500ft 상공 구름 보통

METAR: KELY 201453Z AUTO 20003KT SCT055 M17/M19 A2994 RMK AO2 SLP219 60000 T11721194 53019 $

시각: 01:23 (09:23 UTC)

예보

예보는 22 시간 3분 전, 11:20시(UTC)에 발표되었습니다.
예보 대상 시간: 20일 12시부터 21일 12시까지 (UTC)
9kt
시정: 10km
고도 4000ft 상공 구름 많음
시계 내 소나기
20일 1900시부터 (UTC)
서북서6kt
시정: 10km
고도 4000ft 상공 구름 조금
21일 0200시부터 (UTC)
11kt
시정: 10km
고도 20000ft 상공 구름 보통

TAF: KELY 201120Z 2012/2112 17009KT P6SM VCSH BKN040 FM201900 30006KT P6SM FEW040 FM210200 17011KT P6SM SCT200 AMD NOT SKED

4,000개 이상의 공항 관측 자료 및 예보 (METAR 및 TAF 보고).

지도상에서 검색 가능한 기상관측소가 노란 점과 빨간 점으로 표시되어 있습니다.

기상관측소 명을 보려면 표시 위로 마우스를 이동하세요.

날씨 관측과 예보를 보려면 클릭하세요.

지도 변경 : 확대하려면 엑스 표시가 있는 녹색 버튼, 축소하려면 빼기 표시가 있는 녹색 버튼, 다음 페이지의 지도를 보려면 녹색 화살표를 클릭하세요.


METAR-TAF: